Flight Track Log - Related Links

Times and Time Zones

All times are in EDT time to prevent confusion due to time zone crossing. See the LXJ444 flight status page for this flight to view local times or setup timezone preferences in your user account.

Time Position Orientation Groundspeed Altitude Reporting Facility
EDT Latitude Longitude Course Direction KTS MPH feet Rate Location/Type
Thu 03:19:48 PM 43.5842 -110.7492 292° West 187 215 7,600  Level Salt Lake Center
Thu 03:20:50 PM 43.5297 -110.7872 207° Southwest 217 250 11,100 3,581 Climbing Salt Lake Center
Thu 03:21:52 PM 43.4578 -110.8350 206° Southwest 284 327 15,000 3,659 Climbing Salt Lake Center
Thu 03:22:53 PM 43.3761 -110.8878 205° Southwest 322 371 18,600 3,512 Climbing Salt Lake Center
Thu 03:23:55 PM 43.2975 -110.9494 210° Southwest 344 396 22,200 3,532 Climbing Salt Lake Center
Thu 03:24:00 PM 43.2867 -111.2372 290° West  Level FlightAware Approximate
Thu 03:24:57 PM 43.2986 -111.0911 271° West 349 402 25,900  Level Salt Lake Center
Thu 03:25:00 PM 43.3228 -111.3714 292° West  Level FlightAware Approximate
Thu 03:25:59 PM 43.3336 -111.2147 291° West 361 415 28,300  Level Salt Lake Center
Thu 03:27:00 PM 43.3733 -111.3675 290° West 377 434 30,800 2,195 Climbing Salt Lake Center
Thu 03:28:02 PM 43.4081 -111.5008 290° West 384 442 32,800 1,935 Climbing Salt Lake Center
Thu 03:29:04 PM 43.4500 -111.6611 290° West 395 455 34,800 1,742 Climbing Salt Lake Center
Thu 03:30:06 PM 43.4853 -111.7989 289° West 399 459 36,400 1,561 Climbing Salt Lake Center
Thu 03:31:07 PM 43.5203 -111.9353 290° West 395 455 38,000 1,610 Climbing Salt Lake Center
Thu 03:32:09 PM 43.5603 -112.0950 289° West 394 453 39,700 1,355 Climbing Salt Lake Center
Thu 03:33:11 PM 43.5947 -112.2303 289° West 392 451 40,800 1,073 Climbing Salt Lake Center
Thu 03:34:12 PM 43.6342 -112.3903 289° West 393 452 41,900 976 Climbing Salt Lake Center
Thu 03:35:14 PM 43.6672 -112.5281 288° West 394 453 42,800 532 Climbing Salt Lake Center
Thu 03:36:16 PM 43.7081 -112.6897 289° West 396 456 43,000 98 Climbing Salt Lake Center
Thu 03:37:17 PM 43.7453 -112.8403 289° West 421 484 43,000  Level Salt Lake Center
Thu 03:38:19 PM 43.7822 -112.9931 289° West 437 503 43,000  Level Salt Lake Center
Thu 03:39:21 PM 43.8250 -113.1700 289° West 435 501 43,000  Level Salt Lake Center
Thu 03:40:22 PM 43.8611 -113.3206 288° West 431 496 43,000  Level Salt Lake Center
Thu 03:41:24 PM 43.9022 -113.4922 288° West 423 487 43,000  Level Salt Lake Center
Thu 03:42:26 PM 43.9378 -113.6428 288° West 428 493 43,000  Level Salt Lake Center
Thu 03:43:27 PM 43.9731 -113.7919 288° West 425 489 43,000  Level Salt Lake Center
Thu 03:44:29 PM 44.0144 -113.9667 288° West 435 501 43,000  Level Salt Lake Center
Thu 03:45:30 PM 44.0489 -114.1192 287° West 434 499 43,000  Level Salt Lake Center
Thu 03:46:32 PM 44.0897 -114.2978 288° West 434 499 43,000  Level Salt Lake Center
Thu 03:47:33 PM 44.1247 -114.4506 288° West 434 499 43,000  Level Salt Lake Center
Thu 03:48:35 PM 44.1647 -114.6292 287° West 432 497 43,000  Level Salt Lake Center
Thu 03:49:37 PM 44.1997 -114.7808 288° West 430 495 43,000  Level Salt Lake Center
Thu 03:50:38 PM 44.2397 -114.9589 287° West 430 495 43,000  Level Salt Lake Center
Thu 03:51:40 PM 44.2731 -115.1133 287° West 434 499 43,000  Level Salt Lake Center
Thu 03:52:41 PM 44.3072 -115.2672 287° West 435 501 43,000  Level Salt Lake Center
Thu 03:53:43 PM 44.3467 -115.4461 287° West 433 498 43,000  Level Salt Lake Center
Thu 03:54:44 PM 44.3806 -115.6006 287° West 434 499 43,000  Level Salt Lake Center
Thu 03:55:46 PM 44.4197 -115.7825 287° West 437 503 43,000  Level Salt Lake Center
Thu 03:56:48 PM 44.4531 -115.9356 287° West 435 501 43,000  Level Salt Lake Center
Thu 03:57:49 PM 44.4883 -116.1008 287° West 439 505 43,000  Level Salt Lake Center
Thu 03:58:51 PM 44.5222 -116.2719 286° West 450 518 43,000  Level Salt Lake Center
Thu 03:59:52 PM 44.5597 -116.4536 286° West 439 505 43,000  Level Salt Lake Center
Thu 04:00:54 PM 44.5914 -116.6078 286° West 434 499 43,000  Level Salt Lake Center
Thu 04:01:55 PM 44.6283 -116.7897 286° West 434 499 43,000  Level Salt Lake Center
Thu 04:02:31 PM 44.6442 -116.8672 286° West 434 499 43,000  Level Seattle Center
Thu 04:03:32 PM 44.6803 -117.0481 286° West 432 497 43,000  Level Seattle Center
Thu 04:04:33 PM 44.7125 -117.2031 286° West 432 497 43,000  Level Seattle Center
Thu 04:05:34 PM 44.7417 -117.3575 285° West 429 494 43,000  Level Seattle Center
Thu 04:06:35 PM 44.7783 -117.5394 286° West 431 496 43,000  Level Seattle Center
Thu 04:07:36 PM 44.8075 -117.6942 285° West 430 495 43,000  Level Seattle Center
Thu 04:08:37 PM 44.8433 -117.8753 286° West 429 494 43,000  Level Seattle Center
Thu 04:09:38 PM 44.8725 -118.0311 285° West 430 495 43,000  Level Seattle Center
Thu 04:10:39 PM 44.9000 -118.1781 285° West 426 490 43,000  Level Seattle Center
Thu 04:11:09 PM 44.9200 -118.2753 286° West 428 493 43,000  Level Salt Lake Center
Thu 04:12:10 PM 44.9497 -118.4353 285° West 425 489 43,000  Level Salt Lake Center
Thu 04:12:41 PM 44.9619 -118.4997 285° West 426 490 43,000  Level Seattle Center
Thu 04:13:42 PM 44.9975 -118.6947 285° West 430 495 43,000  Level Seattle Center
Thu 04:14:43 PM 45.0283 -118.8572 285° West 430 495 43,000  Level Seattle Center
Thu 04:15:44 PM 45.0569 -119.0206 284° West 430 495 43,000  Level Seattle Center
Thu 04:16:45 PM 45.0869 -119.1847 285° West 431 496 43,000  Level Seattle Center
Thu 04:17:46 PM 45.1158 -119.3469 284° West 430 495 43,000  Level Seattle Center
Thu 04:18:47 PM 45.1439 -119.5094 284° West 429 494 43,000  Level Seattle Center
Thu 04:19:48 PM 45.1728 -119.6711 284° West 430 495 43,000 -787 Level Seattle Center
Thu 04:20:49 PM 45.1997 -119.8300 286° West 423 487 41,400 -1,967 Descending Seattle Center
Thu 04:21:00 PM 45.2062 -119.8430 286° West  Level FlightAware Approximate
Thu 04:21:50 PM 45.2264 -119.9825 284° West 408 470 39,000  Level Seattle Center
Thu 04:22:51 PM 45.2603 -120.1706 284° West 416 479 36,000 -2,683 Descending Seattle Center
Thu 04:23:53 PM 45.2889 -120.3319 284° West 424 488 33,500 -2,488 Descending Seattle Center
Thu 04:24:54 PM 45.3181 -120.4919 285° West 422 486 30,900 -2,525 Descending Seattle Center
Thu 04:26:00 PM 45.3343 -120.6550 286° West  Level FlightAware Approximate
Thu 04:26:56 PM 45.3681 -120.8142 286° West 427 491 25,800  Level Seattle Center
Thu 04:27:57 PM 45.3919 -120.9794 282° West 428 493 24,000 -1,869 Descending Seattle Center
Thu 04:28:58 PM 45.4147 -121.1236 283° West 372 428 22,000 -2,263 Descending Seattle Center
Thu 04:29:51 PM 45.4406 -121.2658 285° West 369 425 19,700 -2,629 Descending Seattle Center
Thu 04:30:27 PM 45.4561 -121.3486 285° West 347 399 18,100 -2,294 Descending Seattle Center
Thu 04:30:59 PM 45.4653 -121.3944 286° West 347 399 17,100 -2,258 Descending Seattle Center
Thu 04:32:00 PM 45.4900 -121.5186 286° West 327 376 14,600 -2,656 Descending Seattle Center
Thu 04:33:01 PM 45.5172 -121.6597 285° West 308 354 11,700 -2,361 Descending Seattle Center
Thu 04:34:02 PM 45.5311 -121.7686 280° West 282 325 9,800 -1,377 Descending Seattle Center
Thu 04:35:03 PM 45.5281 -121.8675 268° West 252 290 8,900 -885 Descending Seattle Center
Thu 04:36:04 PM 45.5181 -121.9522 260° West 252 290 8,000 -1,131 Descending Seattle Center
Thu 04:37:05 PM 45.5067 -122.0717 262° West 254 292 6,600 -1,389 Descending Seattle Center
Thu 04:37:39 PM 45.5022 -122.1264 263° West 229 264 5,800 -1,023 Descending Seattle Center
Thu 04:38:33 PM 45.4958 -122.2000 263° West 212 244 5,100 -1,023 Descending Seattle Center
Thu 04:39:07 PM 45.5036 -122.2425 285° West 220 253 4,300 -1,516 Descending Seattle Center
Thu 04:40:08 PM 45.5172 -122.3203 284° West 206 237 2,700 -1,131 Descending Seattle Center
Thu 04:41:09 PM 45.5289 -122.3989 282° West 205 236 2,000 -393 Descending Seattle Center
Thu 04:42:10 PM 45.5406 -122.4533 287° West 177 204 1,900 -393 Descending Seattle Center
Thu 04:43:11 PM 45.5572 -122.4992 297° West 144 166 1,200 -689 Descending Seattle Center
Thu 04:44:12 PM 45.5728 -122.5406 298° West 130 150 500 -393 Descending Seattle Center
Thu 04:45:13 PM 45.5886 -122.5833 298° West 129 148 400 -98 Descending Seattle Center

Login

Don't have an account? Register now (free) for customized features, flight alerts, and more!